sensor_id;sensor_type;location;lat;lon;timestamp;P1;durP1;ratioP1;P2;durP2;ratioP2
46363;SDS011;32071;49.036;9.344;2024-02-15T00:00:35;4.17;;;1.80;;
46363;SDS011;32071;49.036;9.344;2024-02-15T00:03:02;2.13;;;1.93;;
46363;SDS011;32071;49.036;9.344;2024-02-15T00:05:28;3.67;;;1.97;;
46363;SDS011;32071;49.036;9.344;2024-02-15T00:07:53;2.83;;;1.77;;
46363;SDS011;32071;49.036;9.344;2024-02-15T00:10:19;3.57;;;1.53;;
46363;SDS011;32071;49.036;9.344;2024-02-15T00:12:49;2.20;;;1.90;;
46363;SDS011;32071;49.036;9.344;2024-02-15T00:15:16;2.50;;;2.07;;
46363;SDS011;32071;49.036;9.344;2024-02-15T00:17:41;1.90;;;1.77;;
46363;SDS011;32071;49.036;9.344;2024-02-15T00:20:07;2.37;;;1.97;;
46363;SDS011;32071;49.036;9.344;2024-02-15T00:22:34;3.87;;;2.10;;
46363;SDS011;32071;49.036;9.344;2024-02-15T00:25:02;3.97;;;2.10;;
46363;SDS011;32071;49.036;9.344;2024-02-15T00:27:30;3.77;;;2.30;;
46363;SDS011;32071;49.036;9.344;2024-02-15T00:29:58;2.93;;;1.57;;
46363;SDS011;32071;49.036;9.344;2024-02-15T00:32:24;3.40;;;1.90;;
46363;SDS011;32071;49.036;9.344;2024-02-15T00:34:50;1.50;;;1.40;;
46363;SDS011;32071;49.036;9.344;2024-02-15T00:37:15;1.97;;;1.73;;
46363;SDS011;32071;49.036;9.344;2024-02-15T00:39:41;1.97;;;1.60;;
46363;SDS011;32071;49.036;9.344;2024-02-15T00:42:08;2.40;;;1.73;;
46363;SDS011;32071;49.036;9.344;2024-02-15T00:44:34;2.53;;;2.03;;
46363;SDS011;32071;49.036;9.344;2024-02-15T00:46:59;4.83;;;1.73;;
46363;SDS011;32071;49.036;9.344;2024-02-15T00:49:25;2.63;;;2.07;;
46363;SDS011;32071;49.036;9.344;2024-02-15T00:51:52;1.60;;;1.50;;
46363;SDS011;32071;49.036;9.344;2024-02-15T00:54:18;2.60;;;1.73;;
46363;SDS011;32071;49.036;9.344;2024-02-15T00:56:44;2.40;;;2.00;;
46363;SDS011;32071;49.036;9.344;2024-02-15T00:59:09;2.47;;;1.73;;
46363;SDS011;32071;49.036;9.344;2024-02-15T01:01:35;2.47;;;2.27;;
46363;SDS011;32071;49.036;9.344;2024-02-15T01:04:03;3.27;;;1.67;;
46363;SDS011;32071;49.036;9.344;2024-02-15T01:06:29;1.83;;;1.70;;
46363;SDS011;32071;49.036;9.344;2024-02-15T01:08:54;5.23;;;2.23;;
46363;SDS011;32071;49.036;9.344;2024-02-15T01:11:20;4.60;;;2.10;;
46363;SDS011;32071;49.036;9.344;2024-02-15T01:13:46;2.23;;;2.03;;
46363;SDS011;32071;49.036;9.344;2024-02-15T01:16:11;2.40;;;1.90;;
46363;SDS011;32071;49.036;9.344;2024-02-15T01:18:37;2.10;;;1.77;;
46363;SDS011;32071;49.036;9.344;2024-02-15T01:21:03;4.03;;;2.43;;
46363;SDS011;32071;49.036;9.344;2024-02-15T01:23:28;1.60;;;1.50;;
46363;SDS011;32071;49.036;9.344;2024-02-15T01:25:54;5.43;;;1.80;;
46363;SDS011;32071;49.036;9.344;2024-02-15T01:28:20;3.40;;;1.77;;
46363;SDS011;32071;49.036;9.344;2024-02-15T01:30:45;4.43;;;1.70;;
46363;SDS011;32071;49.036;9.344;2024-02-15T01:33:11;2.73;;;1.80;;
46363;SDS011;32071;49.036;9.344;2024-02-15T01:35:37;2.87;;;1.90;;
46363;SDS011;32071;49.036;9.344;2024-02-15T01:38:06;4.60;;;1.70;;
46363;SDS011;32071;49.036;9.344;2024-02-15T01:40:31;5.03;;;2.00;;
46363;SDS011;32071;49.036;9.344;2024-02-15T01:42:57;2.40;;;1.47;;
46363;SDS011;32071;49.036;9.344;2024-02-15T01:45:26;3.53;;;1.93;;
46363;SDS011;32071;49.036;9.344;2024-02-15T01:47:53;5.90;;;1.80;;
46363;SDS011;32071;49.036;9.344;2024-02-15T01:50:19;2.93;;;2.00;;
46363;SDS011;32071;49.036;9.344;2024-02-15T01:52:46;2.83;;;2.37;;
46363;SDS011;32071;49.036;9.344;2024-02-15T01:55:13;6.87;;;1.73;;
46363;SDS011;32071;49.036;9.344;2024-02-15T01:57:43;5.47;;;2.17;;
46363;SDS011;32071;49.036;9.344;2024-02-15T02:00:11;2.10;;;1.90;;
46363;SDS011;32071;49.036;9.344;2024-02-15T02:02:38;5.27;;;2.20;;
46363;SDS011;32071;49.036;9.344;2024-02-15T02:05:07;3.60;;;2.10;;
46363;SDS011;32071;49.036;9.344;2024-02-15T02:07:33;1.63;;;1.53;;
46363;SDS011;32071;49.036;9.344;2024-02-15T02:09:59;2.50;;;1.90;;
46363;SDS011;32071;49.036;9.344;2024-02-15T02:12:25;2.60;;;2.27;;
46363;SDS011;32071;49.036;9.344;2024-02-15T02:14:52;2.00;;;1.90;;
46363;SDS011;32071;49.036;9.344;2024-02-15T02:17:19;2.40;;;2.03;;
46363;SDS011;32071;49.036;9.344;2024-02-15T02:19:45;8.63;;;2.20;;
46363;SDS011;32071;49.036;9.344;2024-02-15T02:22:11;3.50;;;2.07;;
46363;SDS011;32071;49.036;9.344;2024-02-15T02:24:56;3.10;;;2.23;;
46363;SDS011;32071;49.036;9.344;2024-02-15T02:27:33;2.40;;;2.00;;
46363;SDS011;32071;49.036;9.344;2024-02-15T02:29:59;5.30;;;1.93;;
46363;SDS011;32071;49.036;9.344;2024-02-15T02:32:25;3.20;;;2.33;;
46363;SDS011;32071;49.036;9.344;2024-02-15T02:34:53;2.80;;;1.80;;
46363;SDS011;32071;49.036;9.344;2024-02-15T02:37:22;3.93;;;2.10;;
46363;SDS011;32071;49.036;9.344;2024-02-15T02:39:49;2.20;;;2.00;;
46363;SDS011;32071;49.036;9.344;2024-02-15T02:42:14;3.00;;;2.47;;
46363;SDS011;32071;49.036;9.344;2024-02-15T02:44:40;3.20;;;2.07;;
46363;SDS011;32071;49.036;9.344;2024-02-15T02:47:06;6.10;;;2.30;;
46363;SDS011;32071;49.036;9.344;2024-02-15T02:49:31;9.40;;;2.17;;
46363;SDS011;32071;49.036;9.344;2024-02-15T02:51:57;2.37;;;2.17;;
46363;SDS011;32071;49.036;9.344;2024-02-15T02:54:22;2.40;;;2.20;;
46363;SDS011;32071;49.036;9.344;2024-02-15T02:56:48;5.43;;;2.00;;
46363;SDS011;32071;49.036;9.344;2024-02-15T02:59:14;2.60;;;2.00;;
46363;SDS011;32071;49.036;9.344;2024-02-15T03:01:41;4.20;;;1.80;;
46363;SDS011;32071;49.036;9.344;2024-02-15T03:04:07;6.63;;;2.30;;
46363;SDS011;32071;49.036;9.344;2024-02-15T03:06:33;2.53;;;2.30;;
46363;SDS011;32071;49.036;9.344;2024-02-15T03:08:59;3.73;;;2.03;;
46363;SDS011;32071;49.036;9.344;2024-02-15T03:11:24;2.37;;;2.17;;
46363;SDS011;32071;49.036;9.344;2024-02-15T03:13:50;4.33;;;2.40;;
46363;SDS011;32071;49.036;9.344;2024-02-15T03:16:15;3.57;;;2.00;;
46363;SDS011;32071;49.036;9.344;2024-02-15T03:18:41;2.93;;;2.00;;
46363;SDS011;32071;49.036;9.344;2024-02-15T03:21:08;5.20;;;2.20;;
46363;SDS011;32071;49.036;9.344;2024-02-15T03:23:35;2.20;;;2.00;;
46363;SDS011;32071;49.036;9.344;2024-02-15T03:26:07;2.80;;;2.27;;
46363;SDS011;32071;49.036;9.344;2024-02-15T03:28:34;2.63;;;1.70;;
46363;SDS011;32071;49.036;9.344;2024-02-15T03:31:01;2.77;;;2.03;;
46363;SDS011;32071;49.036;9.344;2024-02-15T03:33:27;2.43;;;2.00;;
46363;SDS011;32071;49.036;9.344;2024-02-15T03:35:57;2.90;;;2.27;;
46363;SDS011;32071;49.036;9.344;2024-02-15T03:38:25;4.00;;;1.93;;
46363;SDS011;32071;49.036;9.344;2024-02-15T03:40:51;5.90;;;1.87;;
46363;SDS011;32071;49.036;9.344;2024-02-15T03:43:17;3.20;;;1.83;;
46363;SDS011;32071;49.036;9.344;2024-02-15T03:45:43;2.80;;;2.27;;
46363;SDS011;32071;49.036;9.344;2024-02-15T03:48:09;2.97;;;2.20;;
46363;SDS011;32071;49.036;9.344;2024-02-15T03:50:35;5.23;;;2.27;;
46363;SDS011;32071;49.036;9.344;2024-02-15T03:53:01;3.83;;;2.10;;
46363;SDS011;32071;49.036;9.344;2024-02-15T03:55:26;3.40;;;2.17;;
46363;SDS011;32071;49.036;9.344;2024-02-15T03:57:52;4.93;;;2.10;;
46363;SDS011;32071;49.036;9.344;2024-02-15T04:00:20;3.67;;;1.80;;
46363;SDS011;32071;49.036;9.344;2024-02-15T04:02:46;3.53;;;2.03;;
46363;SDS011;32071;49.036;9.344;2024-02-15T04:05:14;1.93;;;1.77;;
46363;SDS011;32071;49.036;9.344;2024-02-15T04:07:39;3.40;;;2.10;;
46363;SDS011;32071;49.036;9.344;2024-02-15T04:10:05;3.30;;;2.03;;
46363;SDS011;32071;49.036;9.344;2024-02-15T04:12:32;3.53;;;1.83;;
46363;SDS011;32071;49.036;9.344;2024-02-15T04:14:58;4.73;;;2.10;;
46363;SDS011;32071;49.036;9.344;2024-02-15T04:17:32;2.10;;;1.90;;
46363;SDS011;32071;49.036;9.344;2024-02-15T04:20:00;2.20;;;2.00;;
46363;SDS011;32071;49.036;9.344;2024-02-15T04:22:26;4.70;;;2.60;;
46363;SDS011;32071;49.036;9.344;2024-02-15T04:24:51;2.80;;;2.27;;
46363;SDS011;32071;49.036;9.344;2024-02-15T04:27:17;2.60;;;1.87;;
46363;SDS011;32071;49.036;9.344;2024-02-15T04:29:45;3.73;;;2.47;;
46363;SDS011;32071;49.036;9.344;2024-02-15T04:32:11;4.33;;;1.90;;
46363;SDS011;32071;49.036;9.344;2024-02-15T04:34:38;3.37;;;2.33;;
46363;SDS011;32071;49.036;9.344;2024-02-15T04:37:04;3.30;;;1.90;;
46363;SDS011;32071;49.036;9.344;2024-02-15T04:39:34;2.37;;;2.00;;
46363;SDS011;32071;49.036;9.344;2024-02-15T04:42:00;2.90;;;2.17;;
46363;SDS011;32071;49.036;9.344;2024-02-15T04:44:26;3.87;;;1.83;;
46363;SDS011;32071;49.036;9.344;2024-02-15T04:46:55;4.93;;;2.67;;
46363;SDS011;32071;49.036;9.344;2024-02-15T04:49:20;2.43;;;2.10;;
46363;SDS011;32071;49.036;9.344;2024-02-15T04:51:47;5.10;;;2.10;;
46363;SDS011;32071;49.036;9.344;2024-02-15T04:54:14;4.00;;;2.00;;
46363;SDS011;32071;49.036;9.344;2024-02-15T04:56:40;2.43;;;2.10;;
46363;SDS011;32071;49.036;9.344;2024-02-15T04:59:06;2.10;;;1.77;;
46363;SDS011;32071;49.036;9.344;2024-02-15T05:01:40;2.70;;;1.93;;
46363;SDS011;32071;49.036;9.344;2024-02-15T05:04:08;3.23;;;2.10;;
46363;SDS011;32071;49.036;9.344;2024-02-15T05:06:34;2.97;;;1.93;;
46363;SDS011;32071;49.036;9.344;2024-02-15T05:09:01;4.63;;;2.43;;
46363;SDS011;32071;49.036;9.344;2024-02-15T05:11:32;2.83;;;2.23;;
46363;SDS011;32071;49.036;9.344;2024-02-15T05:14:00;3.30;;;1.43;;
46363;SDS011;32071;49.036;9.344;2024-02-15T05:16:26;4.17;;;1.90;;
46363;SDS011;32071;49.036;9.344;2024-02-15T05:18:51;5.63;;;2.23;;
46363;SDS011;32071;49.036;9.344;2024-02-15T05:21:18;2.23;;;2.03;;
46363;SDS011;32071;49.036;9.344;2024-02-15T05:23:44;5.50;;;2.90;;
46363;SDS011;32071;49.036;9.344;2024-02-15T05:26:11;5.60;;;2.13;;
46363;SDS011;32071;49.036;9.344;2024-02-15T05:28:37;5.20;;;2.13;;
46363;SDS011;32071;49.036;9.344;2024-02-15T05:31:09;4.80;;;2.50;;
46363;SDS011;32071;49.036;9.344;2024-02-15T05:33:48;5.00;;;2.30;;
46363;SDS011;32071;49.036;9.344;2024-02-15T05:36:14;7.00;;;2.30;;
46363;SDS011;32071;49.036;9.344;2024-02-15T05:38:41;2.60;;;2.20;;
46363;SDS011;32071;49.036;9.344;2024-02-15T05:41:10;2.23;;;2.10;;
46363;SDS011;32071;49.036;9.344;2024-02-15T05:43:36;3.73;;;2.17;;
46363;SDS011;32071;49.036;9.344;2024-02-15T05:46:03;4.43;;;2.50;;
46363;SDS011;32071;49.036;9.344;2024-02-15T05:48:29;4.80;;;2.23;;
46363;SDS011;32071;49.036;9.344;2024-02-15T05:50:55;3.13;;;2.00;;
46363;SDS011;32071;49.036;9.344;2024-02-15T05:53:22;4.20;;;2.47;;
46363;SDS011;32071;49.036;9.344;2024-02-15T05:55:49;3.13;;;2.40;;
46363;SDS011;32071;49.036;9.344;2024-02-15T05:58:15;2.40;;;2.20;;
46363;SDS011;32071;49.036;9.344;2024-02-15T06:00:41;2.10;;;1.90;;
46363;SDS011;32071;49.036;9.344;2024-02-15T06:03:09;2.50;;;2.10;;
46363;SDS011;32071;49.036;9.344;2024-02-15T06:05:36;3.40;;;2.13;;
46363;SDS011;32071;49.036;9.344;2024-02-15T06:08:02;3.67;;;2.43;;
46363;SDS011;32071;49.036;9.344;2024-02-15T06:10:27;2.30;;;2.10;;
46363;SDS011;32071;49.036;9.344;2024-02-15T06:12:54;4.13;;;2.20;;
46363;SDS011;32071;49.036;9.344;2024-02-15T06:15:21;2.53;;;2.33;;
46363;SDS011;32071;49.036;9.344;2024-02-15T06:17:48;3.77;;;2.00;;
46363;SDS011;32071;49.036;9.344;2024-02-15T06:20:14;3.40;;;2.87;;
46363;SDS011;32071;49.036;9.344;2024-02-15T06:22:42;8.57;;;2.70;;
46363;SDS011;32071;49.036;9.344;2024-02-15T06:25:09;2.83;;;2.30;;
46363;SDS011;32071;49.036;9.344;2024-02-15T06:27:35;2.90;;;2.17;;
46363;SDS011;32071;49.036;9.344;2024-02-15T06:30:05;3.00;;;2.17;;
46363;SDS011;32071;49.036;9.344;2024-02-15T06:32:50;3.10;;;2.40;;
46363;SDS011;32071;49.036;9.344;2024-02-15T06:35:36;3.20;;;2.10;;
46363;SDS011;32071;49.036;9.344;2024-02-15T06:38:21;3.70;;;2.77;;
46363;SDS011;32071;49.036;9.344;2024-02-15T06:41:06;2.30;;;2.10;;
46363;SDS011;32071;49.036;9.344;2024-02-15T06:43:31;3.33;;;2.30;;
46363;SDS011;32071;49.036;9.344;2024-02-15T06:45:58;2.77;;;1.73;;
46363;SDS011;32071;49.036;9.344;2024-02-15T06:48:23;2.50;;;2.30;;
46363;SDS011;32071;49.036;9.344;2024-02-15T06:50:51;2.70;;;1.73;;
46363;SDS011;32071;49.036;9.344;2024-02-15T06:53:16;2.73;;;2.37;;
46363;SDS011;32071;49.036;9.344;2024-02-15T06:55:44;4.13;;;1.87;;
46363;SDS011;32071;49.036;9.344;2024-02-15T06:58:10;1.83;;;1.73;;
46363;SDS011;32071;49.036;9.344;2024-02-15T07:00:37;9.20;;;4.63;;
46363;SDS011;32071;49.036;9.344;2024-02-15T07:03:05;6.00;;;3.73;;
46363;SDS011;32071;49.036;9.344;2024-02-15T07:05:32;8.07;;;5.33;;
46363;SDS011;32071;49.036;9.344;2024-02-15T07:07:58;8.27;;;4.60;;
46363;SDS011;32071;49.036;9.344;2024-02-15T07:10:24;3.33;;;2.33;;
46363;SDS011;32071;49.036;9.344;2024-02-15T07:12:50;6.20;;;2.83;;
46363;SDS011;32071;49.036;9.344;2024-02-15T07:15:16;7.40;;;2.67;;
46363;SDS011;32071;49.036;9.344;2024-02-15T07:17:42;7.87;;;4.17;;
46363;SDS011;32071;49.036;9.344;2024-02-15T07:20:10;3.53;;;2.87;;
46363;SDS011;32071;49.036;9.344;2024-02-15T07:22:36;8.73;;;4.20;;
46363;SDS011;32071;49.036;9.344;2024-02-15T07:25:03;7.13;;;2.27;;
46363;SDS011;32071;49.036;9.344;2024-02-15T07:27:29;4.83;;;3.30;;
46363;SDS011;32071;49.036;9.344;2024-02-15T07:29:55;4.20;;;2.80;;
46363;SDS011;32071;49.036;9.344;2024-02-15T07:32:21;3.30;;;2.47;;
46363;SDS011;32071;49.036;9.344;2024-02-15T07:34:46;3.13;;;2.10;;
46363;SDS011;32071;49.036;9.344;2024-02-15T07:37:12;3.43;;;2.50;;
46363;SDS011;32071;49.036;9.344;2024-02-15T07:39:40;2.67;;;2.10;;
46363;SDS011;32071;49.036;9.344;2024-02-15T07:42:06;3.77;;;2.10;;
46363;SDS011;32071;49.036;9.344;2024-02-15T07:44:33;2.83;;;1.83;;
46363;SDS011;32071;49.036;9.344;2024-02-15T07:47:01;2.37;;;1.80;;
46363;SDS011;32071;49.036;9.344;2024-02-15T07:49:27;2.63;;;2.20;;
46363;SDS011;32071;49.036;9.344;2024-02-15T07:51:53;5.93;;;2.17;;
46363;SDS011;32071;49.036;9.344;2024-02-15T07:54:19;2.80;;;1.77;;
46363;SDS011;32071;49.036;9.344;2024-02-15T07:56:48;3.87;;;2.23;;
46363;SDS011;32071;49.036;9.344;2024-02-15T07:59:14;4.47;;;2.40;;
46363;SDS011;32071;49.036;9.344;2024-02-15T08:01:43;4.67;;;2.20;;
46363;SDS011;32071;49.036;9.344;2024-02-15T08:04:12;2.10;;;1.90;;
46363;SDS011;32071;49.036;9.344;2024-02-15T08:06:38;2.47;;;1.73;;
46363;SDS011;32071;49.036;9.344;2024-02-15T08:09:03;1.93;;;1.80;;
46363;SDS011;32071;49.036;9.344;2024-02-15T08:11:32;3.00;;;1.70;;
46363;SDS011;32071;49.036;9.344;2024-02-15T08:13:57;2.10;;;1.90;;
46363;SDS011;32071;49.036;9.344;2024-02-15T08:16:26;10.43;;;2.67;;
46363;SDS011;32071;49.036;9.344;2024-02-15T08:18:54;2.87;;;1.93;;
46363;SDS011;32071;49.036;9.344;2024-02-15T08:21:26;4.00;;;1.80;;
46363;SDS011;32071;49.036;9.344;2024-02-15T08:23:54;1.70;;;1.60;;
46363;SDS011;32071;49.036;9.344;2024-02-15T08:26:20;2.10;;;1.77;;
46363;SDS011;32071;49.036;9.344;2024-02-15T08:28:46;4.13;;;2.03;;
46363;SDS011;32071;49.036;9.344;2024-02-15T08:31:12;3.07;;;1.70;;
46363;SDS011;32071;49.036;9.344;2024-02-15T08:33:40;5.43;;;2.10;;
46363;SDS011;32071;49.036;9.344;2024-02-15T08:36:06;4.80;;;1.63;;
46363;SDS011;32071;49.036;9.344;2024-02-15T08:38:32;2.10;;;1.90;;
46363;SDS011;32071;49.036;9.344;2024-02-15T08:40:59;3.70;;;2.00;;
46363;SDS011;32071;49.036;9.344;2024-02-15T08:43:24;2.70;;;1.60;;
46363;SDS011;32071;49.036;9.344;2024-02-15T08:45:50;2.90;;;2.20;;
46363;SDS011;32071;49.036;9.344;2024-02-15T08:48:16;2.23;;;1.80;;
46363;SDS011;32071;49.036;9.344;2024-02-15T08:50:41;2.00;;;1.70;;
46363;SDS011;32071;49.036;9.344;2024-02-15T08:53:07;2.10;;;1.70;;
46363;SDS011;32071;49.036;9.344;2024-02-15T08:55:32;5.87;;;2.30;;
46363;SDS011;32071;49.036;9.344;2024-02-15T08:58:00;1.43;;;1.33;;
46363;SDS011;32071;49.036;9.344;2024-02-15T09:00:27;2.20;;;1.90;;
46363;SDS011;32071;49.036;9.344;2024-02-15T09:02:53;3.80;;;2.07;;
46363;SDS011;32071;49.036;9.344;2024-02-15T09:05:18;2.20;;;1.67;;
46363;SDS011;32071;49.036;9.344;2024-02-15T09:07:47;1.70;;;1.40;;
46363;SDS011;32071;49.036;9.344;2024-02-15T09:10:13;2.13;;;2.03;;
46363;SDS011;32071;49.036;9.344;2024-02-15T09:12:40;1.83;;;1.67;;
46363;SDS011;32071;49.036;9.344;2024-02-15T09:15:07;2.70;;;1.70;;
46363;SDS011;32071;49.036;9.344;2024-02-15T09:17:34;1.60;;;1.50;;
46363;SDS011;32071;49.036;9.344;2024-02-15T09:20:05;2.10;;;1.90;;
46363;SDS011;32071;49.036;9.344;2024-02-15T09:22:33;2.03;;;1.93;;
46363;SDS011;32071;49.036;9.344;2024-02-15T09:25:00;3.07;;;1.93;;
46363;SDS011;32071;49.036;9.344;2024-02-15T09:27:27;1.60;;;1.50;;
46363;SDS011;32071;49.036;9.344;2024-02-15T09:29:52;3.83;;;1.80;;
46363;SDS011;32071;49.036;9.344;2024-02-15T09:32:18;4.97;;;2.30;;
46363;SDS011;32071;49.036;9.344;2024-02-15T09:34:43;5.77;;;2.37;;
46363;SDS011;32071;49.036;9.344;2024-02-15T09:37:09;2.47;;;1.83;;
46363;SDS011;32071;49.036;9.344;2024-02-15T09:39:36;3.33;;;1.70;;
46363;SDS011;32071;49.036;9.344;2024-02-15T09:42:03;2.63;;;1.70;;
46363;SDS011;32071;49.036;9.344;2024-02-15T09:44:28;4.73;;;2.13;;
46363;SDS011;32071;49.036;9.344;2024-02-15T09:47:00;6.70;;;1.90;;
46363;SDS011;32071;49.036;9.344;2024-02-15T09:49:35;5.63;;;1.90;;
46363;SDS011;32071;49.036;9.344;2024-02-15T09:52:02;3.00;;;1.90;;
46363;SDS011;32071;49.036;9.344;2024-02-15T09:54:29;4.40;;;1.60;;
46363;SDS011;32071;49.036;9.344;2024-02-15T09:56:56;2.70;;;1.50;;
46363;SDS011;32071;49.036;9.344;2024-02-15T09:59:26;3.03;;;1.47;;
46363;SDS011;32071;49.036;9.344;2024-02-15T10:01:51;3.57;;;1.70;;
46363;SDS011;32071;49.036;9.344;2024-02-15T10:04:23;1.47;;;1.27;;
46363;SDS011;32071;49.036;9.344;2024-02-15T10:06:50;3.10;;;1.60;;
46363;SDS011;32071;49.036;9.344;2024-02-15T10:09:26;5.27;;;2.17;;
46363;SDS011;32071;49.036;9.344;2024-02-15T10:11:53;3.57;;;2.50;;
46363;SDS011;32071;49.036;9.344;2024-02-15T10:14:28;2.40;;;1.63;;
46363;SDS011;32071;49.036;9.344;2024-02-15T10:16:55;3.30;;;1.93;;
46363;SDS011;32071;49.036;9.344;2024-02-15T10:19:22;2.37;;;1.87;;
46363;SDS011;32071;49.036;9.344;2024-02-15T10:21:52;2.97;;;1.70;;
46363;SDS011;32071;49.036;9.344;2024-02-15T10:24:24;1.97;;;1.40;;
46363;SDS011;32071;49.036;9.344;2024-02-15T10:26:50;4.43;;;2.50;;
46363;SDS011;32071;49.036;9.344;2024-02-15T10:29:16;3.33;;;2.90;;
46363;SDS011;32071;49.036;9.344;2024-02-15T10:31:52;1.83;;;1.60;;
46363;SDS011;32071;49.036;9.344;2024-02-15T10:34:19;1.87;;;1.13;;
46363;SDS011;32071;49.036;9.344;2024-02-15T10:36:45;1.63;;;1.50;;
46363;SDS011;32071;49.036;9.344;2024-02-15T10:41:47;5.03;;;2.03;;
46363;SDS011;32071;49.036;9.344;2024-02-15T10:44:15;3.43;;;1.30;;
46363;SDS011;32071;49.036;9.344;2024-02-15T10:46:43;1.50;;;1.30;;
46363;SDS011;32071;49.036;9.344;2024-02-15T10:49:11;4.93;;;1.60;;
46363;SDS011;32071;49.036;9.344;2024-02-15T10:51:36;1.40;;;1.17;;
46363;SDS011;32071;49.036;9.344;2024-02-15T10:54:07;1.70;;;1.40;;
46363;SDS011;32071;49.036;9.344;2024-02-15T10:56:37;1.27;;;1.17;;
46363;SDS011;32071;49.036;9.344;2024-02-15T11:01:49;1.90;;;1.00;;
46363;SDS011;32071;49.036;9.344;2024-02-15T11:04:19;2.03;;;1.20;;
46363;SDS011;32071;49.036;9.344;2024-02-15T11:06:50;1.80;;;1.17;;
46363;SDS011;32071;49.036;9.344;2024-02-15T11:09:17;1.40;;;1.30;;
46363;SDS011;32071;49.036;9.344;2024-02-15T11:11:44;1.77;;;1.17;;
46363;SDS011;32071;49.036;9.344;2024-02-15T11:14:27;2.37;;;1.10;;
46363;SDS011;32071;49.036;9.344;2024-02-15T11:16:55;2.63;;;1.17;;
46363;SDS011;32071;49.036;9.344;2024-02-15T11:21:57;2.50;;;1.33;;
46363;SDS011;32071;49.036;9.344;2024-02-15T11:24:30;2.50;;;1.20;;
46363;SDS011;32071;49.036;9.344;2024-02-15T11:26:57;3.40;;;1.10;;
46363;SDS011;32071;49.036;9.344;2024-02-15T11:29:48;2.17;;;1.40;;
46363;SDS011;32071;49.036;9.344;2024-02-15T11:35:03;2.07;;;1.80;;
46363;SDS011;32071;49.036;9.344;2024-02-15T11:38:00;3.93;;;1.40;;
46363;SDS011;32071;49.036;9.344;2024-02-15T11:40:28;3.20;;;1.40;;
46363;SDS011;32071;49.036;9.344;2024-02-15T11:46:12;1.40;;;1.20;;
46363;SDS011;32071;49.036;9.344;2024-02-15T11:48:48;1.50;;;1.23;;
46363;SDS011;32071;49.036;9.344;2024-02-15T11:54:13;1.93;;;1.50;;
46363;SDS011;32071;49.036;9.344;2024-02-15T11:59:29;5.53;;;1.30;;
46363;SDS011;32071;49.036;9.344;2024-02-15T12:01:57;2.10;;;1.07;;
46363;SDS011;32071;49.036;9.344;2024-02-15T12:04:42;3.50;;;2.60;;
46363;SDS011;32071;49.036;9.344;2024-02-15T12:07:28;6.70;;;1.27;;
46363;SDS011;32071;49.036;9.344;2024-02-15T12:10:18;1.57;;;1.23;;
46363;SDS011;32071;49.036;9.344;2024-02-15T12:13:03;2.73;;;1.20;;
46363;SDS011;32071;49.036;9.344;2024-02-15T12:15:57;2.00;;;1.60;;
46363;SDS011;32071;49.036;9.344;2024-02-15T12:18:42;1.17;;;1.10;;
46363;SDS011;32071;49.036;9.344;2024-02-15T12:21:09;1.30;;;1.20;;
46363;SDS011;32071;49.036;9.344;2024-02-15T12:23:39;1.13;;;1.03;;
46363;SDS011;32071;49.036;9.344;2024-02-15T12:26:06;2.37;;;1.40;;
46363;SDS011;32071;49.036;9.344;2024-02-15T12:28:32;4.07;;;1.40;;
46363;SDS011;32071;49.036;9.344;2024-02-15T12:31:00;2.00;;;1.30;;
46363;SDS011;32071;49.036;9.344;2024-02-15T12:33:27;2.67;;;1.40;;
46363;SDS011;32071;49.036;9.344;2024-02-15T12:35:52;1.90;;;1.47;;
46363;SDS011;32071;49.036;9.344;2024-02-15T12:38:32;1.67;;;1.50;;
46363;SDS011;32071;49.036;9.344;2024-02-15T12:40:59;2.00;;;1.20;;
46363;SDS011;32071;49.036;9.344;2024-02-15T12:43:27;3.90;;;1.40;;
46363;SDS011;32071;49.036;9.344;2024-02-15T12:45:53;1.77;;;1.60;;
46363;SDS011;32071;49.036;9.344;2024-02-15T12:48:21;6.17;;;1.67;;
46363;SDS011;32071;49.036;9.344;2024-02-15T12:50:47;2.57;;;1.70;;
46363;SDS011;32071;49.036;9.344;2024-02-15T12:53:13;1.40;;;1.30;;
46363;SDS011;32071;49.036;9.344;2024-02-15T12:55:46;2.30;;;1.37;;
46363;SDS011;32071;49.036;9.344;2024-02-15T12:58:21;3.60;;;1.30;;
46363;SDS011;32071;49.036;9.344;2024-02-15T13:00:49;2.53;;;1.63;;
46363;SDS011;32071;49.036;9.344;2024-02-15T13:03:15;4.30;;;1.67;;
46363;SDS011;32071;49.036;9.344;2024-02-15T13:05:42;1.97;;;1.30;;
46363;SDS011;32071;49.036;9.344;2024-02-15T13:08:08;1.60;;;1.10;;
46363;SDS011;32071;49.036;9.344;2024-02-15T13:10:38;1.53;;;1.13;;
46363;SDS011;32071;49.036;9.344;2024-02-15T13:13:04;2.57;;;1.50;;
46363;SDS011;32071;49.036;9.344;2024-02-15T13:15:30;2.53;;;1.30;;
46363;SDS011;32071;49.036;9.344;2024-02-15T13:17:59;4.60;;;1.47;;
46363;SDS011;32071;49.036;9.344;2024-02-15T13:20:26;1.73;;;1.40;;
46363;SDS011;32071;49.036;9.344;2024-02-15T13:22:59;1.60;;;1.03;;
46363;SDS011;32071;49.036;9.344;2024-02-15T13:25:28;4.83;;;1.77;;
46363;SDS011;32071;49.036;9.344;2024-02-15T13:27:54;1.40;;;1.17;;
46363;SDS011;32071;49.036;9.344;2024-02-15T13:30:21;2.30;;;1.30;;
46363;SDS011;32071;49.036;9.344;2024-02-15T13:32:49;2.10;;;1.37;;
46363;SDS011;32071;49.036;9.344;2024-02-15T13:35:17;2.93;;;1.63;;
46363;SDS011;32071;49.036;9.344;2024-02-15T13:37:48;1.87;;;1.27;;
46363;SDS011;32071;49.036;9.344;2024-02-15T13:40:19;1.50;;;1.13;;
46363;SDS011;32071;49.036;9.344;2024-02-15T13:42:48;1.43;;;1.30;;
46363;SDS011;32071;49.036;9.344;2024-02-15T13:45:20;2.20;;;1.00;;
46363;SDS011;32071;49.036;9.344;2024-02-15T13:47:52;6.47;;;1.40;;
46363;SDS011;32071;49.036;9.344;2024-02-15T13:50:18;2.10;;;1.30;;
46363;SDS011;32071;49.036;9.344;2024-02-15T13:52:44;2.33;;;0.97;;
46363;SDS011;32071;49.036;9.344;2024-02-15T13:55:11;1.63;;;1.00;;
46363;SDS011;32071;49.036;9.344;2024-02-15T13:57:41;1.43;;;1.23;;
46363;SDS011;32071;49.036;9.344;2024-02-15T14:00:08;2.77;;;1.40;;
46363;SDS011;32071;49.036;9.344;2024-02-15T14:02:42;2.40;;;1.23;;
46363;SDS011;32071;49.036;9.344;2024-02-15T14:05:08;1.50;;;1.27;;
46363;SDS011;32071;49.036;9.344;2024-02-15T14:07:36;2.83;;;1.60;;
46363;SDS011;32071;49.036;9.344;2024-02-15T14:10:03;2.00;;;1.50;;
46363;SDS011;32071;49.036;9.344;2024-02-15T14:12:29;2.67;;;1.63;;
46363;SDS011;32071;49.036;9.344;2024-02-15T14:14:55;2.40;;;1.23;;
46363;SDS011;32071;49.036;9.344;2024-02-15T14:17:21;2.17;;;1.30;;
46363;SDS011;32071;49.036;9.344;2024-02-15T14:19:47;2.17;;;1.40;;
46363;SDS011;32071;49.036;9.344;2024-02-15T14:22:13;1.73;;;1.20;;
46363;SDS011;32071;49.036;9.344;2024-02-15T14:24:41;2.17;;;1.33;;
46363;SDS011;32071;49.036;9.344;2024-02-15T14:27:08;2.83;;;1.50;;
46363;SDS011;32071;49.036;9.344;2024-02-15T14:29:34;1.67;;;1.10;;
46363;SDS011;32071;49.036;9.344;2024-02-15T14:32:02;3.00;;;1.43;;
46363;SDS011;32071;49.036;9.344;2024-02-15T14:34:48;1.27;;;1.17;;
46363;SDS011;32071;49.036;9.344;2024-02-15T14:37:14;1.97;;;1.60;;
46363;SDS011;32071;49.036;9.344;2024-02-15T14:39:42;3.63;;;1.43;;
46363;SDS011;32071;49.036;9.344;2024-02-15T14:42:08;3.87;;;1.60;;
46363;SDS011;32071;49.036;9.344;2024-02-15T14:44:33;1.10;;;1.10;;
46363;SDS011;32071;49.036;9.344;2024-02-15T14:46:59;1.43;;;1.30;;
46363;SDS011;32071;49.036;9.344;2024-02-15T14:49:24;4.97;;;1.53;;
46363;SDS011;32071;49.036;9.344;2024-02-15T14:51:50;2.70;;;1.30;;
46363;SDS011;32071;49.036;9.344;2024-02-15T14:54:16;1.20;;;1.10;;
46363;SDS011;32071;49.036;9.344;2024-02-15T14:56:43;1.83;;;1.53;;
46363;SDS011;32071;49.036;9.344;2024-02-15T14:59:09;2.20;;;1.37;;
46363;SDS011;32071;49.036;9.344;2024-02-15T15:01:36;3.43;;;1.87;;
46363;SDS011;32071;49.036;9.344;2024-02-15T15:04:03;1.23;;;1.13;;
46363;SDS011;32071;49.036;9.344;2024-02-15T15:06:31;2.30;;;1.30;;
46363;SDS011;32071;49.036;9.344;2024-02-15T15:09:15;2.83;;;1.60;;
46363;SDS011;32071;49.036;9.344;2024-02-15T15:11:59;2.20;;;1.33;;